Time;durP1;ratioP1;P1;durP2;ratioP2;P2;SDS_P1;SDS_P2;PMS_P1;PMS_P2;Temp;Humidity;BMP_temperature;BMP_pressure;BME280_temperature;BME280_humidity;BME280_pressure;Samples;Min_cycle;Max_cycle;Signal;HPM_P1;HPM_P2
2022/01/08 00:01:03;;;;;;;7.60;4.10;;;;;;;;;;5139325;27;20480;-76
2022/01/08 00:03:31;;;;;;;5.80;4.00;;;;;;;;;;5138975;27;20453;-77
2022/01/08 00:06:00;;;;;;;5.73;3.93;;;;;;;;;;5131482;27;20506;-77
2022/01/08 00:08:28;;;;;;;7.77;4.23;;;;;;;;;;5137698;27;20453;-76
2022/01/08 00:10:56;;;;;;;8.30;4.13;;;;;;;;;;5132725;27;20948;-77
2022/01/08 00:13:24;;;;;;;6.73;4.03;;;;;;;;;;5130220;27;20464;-77
2022/01/08 00:15:52;;;;;;;6.83;4.00;;;;;;;;;;5113486;27;20473;-77
2022/01/08 00:18:20;;;;;;;5.17;4.23;;;;;;;;;;5139619;27;20453;-77
2022/01/08 00:20:48;;;;;;;6.67;4.23;;;;;;;;;;5138851;27;20827;-77
2022/01/08 00:23:18;;;;;;;9.17;4.53;;;;;;;;;;5139306;27;20809;-77
2022/01/08 00:25:45;;;;;;;7.67;4.07;;;;;;;;;;5135827;27;20453;-76
2022/01/08 00:28:13;;;;;;;4.43;3.87;;;;;;;;;;5130962;27;20454;-76
2022/01/08 00:30:41;;;;;;;7.63;4.10;;;;;;;;;;5138310;27;20452;-76
2022/01/08 00:33:09;;;;;;;5.97;4.00;;;;;;;;;;5139286;27;20457;-77
2022/01/08 00:35:37;;;;;;;8.10;4.33;;;;;;;;;;5132761;27;20537;-77
2022/01/08 00:38:05;;;;;;;4.33;3.70;;;;;;;;;;5131848;27;20487;-76
2022/01/08 00:40:35;;;;;;;8.47;4.10;;;;;;;;;;5130438;27;20976;-76
2022/01/08 00:43:03;;;;;;;6.03;3.50;;;;;;;;;;5131361;27;20464;-76
2022/01/08 00:45:31;;;;;;;4.93;3.60;;;;;;;;;;5138443;27;20472;-76
2022/01/08 00:47:59;;;;;;;8.27;4.20;;;;;;;;;;5137592;27;20489;-77
2022/01/08 00:50:27;;;;;;;5.33;4.03;;;;;;;;;;5138689;27;20450;-75
2022/01/08 00:52:55;;;;;;;5.17;4.07;;;;;;;;;;5125019;27;20465;-76
2022/01/08 00:55:23;;;;;;;6.07;3.60;;;;;;;;;;5139766;27;20453;-77
2022/01/08 00:57:52;;;;;;;5.10;4.60;;;;;;;;;;5130044;27;20477;-76
2022/01/08 01:00:20;;;;;;;6.27;3.77;;;;;;;;;;5133074;27;20972;-77
2022/01/08 01:02:48;;;;;;;4.33;3.90;;;;;;;;;;5130446;27;20459;-77
2022/01/08 01:05:16;;;;;;;5.23;3.73;;;;;;;;;;5133542;27;20454;-77
2022/01/08 01:07:44;;;;;;;9.50;3.67;;;;;;;;;;5136746;27;20470;-77
2022/01/08 01:10:13;;;;;;;7.17;3.63;;;;;;;;;;5129343;27;20464;-76
2022/01/08 01:12:40;;;;;;;5.40;3.50;;;;;;;;;;5124982;27;20961;-77
2022/01/08 01:15:14;;;;;;;7.97;4.07;;;;;;;;;;5136668;27;20457;-77
2022/01/08 01:17:43;;;;;;;5.43;4.07;;;;;;;;;;5138071;27;20482;-76
2022/01/08 01:20:12;;;;;;;4.20;3.27;;;;;;;;;;5126024;27;20564;-77
2022/01/08 01:22:47;;;;;;;5.63;4.10;;;;;;;;;;5122951;27;20461;-76
2022/01/08 01:25:20;;;;;;;4.30;3.13;;;;;;;;;;5134705;27;20454;-77
2022/01/08 01:28:04;;;;;;;8.07;3.73;;;;;;;;;;5129164;27;20466;-77
2022/01/08 01:41:47;;;;;;;5.27;3.20;;;;;;;;;;5130140;27;20944;-77
2022/01/08 01:47:05;;;;;;;4.07;2.87;;;;;;;;;;5107901;27;20477;-77
2022/01/08 01:49:34;;;;;;;5.70;3.63;;;;;;;;;;5136807;27;20921;-77
2022/01/08 01:52:03;;;;;;;3.80;2.90;;;;;;;;;;5138002;27;20453;-77
2022/01/08 01:54:31;;;;;;;5.60;3.93;;;;;;;;;;5133244;27;20463;-77
2022/01/08 01:57:00;;;;;;;6.23;3.27;;;;;;;;;;5140368;27;20485;-77
2022/01/08 01:59:29;;;;;;;6.13;3.10;;;;;;;;;;5133926;27;20445;-78
2022/01/08 02:01:57;;;;;;;9.40;3.83;;;;;;;;;;5135585;27;20936;-78
2022/01/08 02:04:27;;;;;;;5.30;3.47;;;;;;;;;;5131083;27;20449;-77
2022/01/08 02:06:55;;;;;;;2.93;2.63;;;;;;;;;;5128976;27;20476;-77
2022/01/08 02:09:23;;;;;;;5.60;3.10;;;;;;;;;;5138276;27;20499;-77
2022/01/08 02:12:01;;;;;;;3.27;2.30;;;;;;;;;;5135620;27;20816;-78
2022/01/08 02:14:30;;;;;;;7.03;3.20;;;;;;;;;;5134554;27;20464;-78
2022/01/08 02:16:58;;;;;;;3.47;2.30;;;;;;;;;;5133998;27;20473;-78
2022/01/08 02:19:28;;;;;;;8.63;2.67;;;;;;;;;;5135861;27;20454;-78
2022/01/08 02:21:58;;;;;;;3.73;2.57;;;;;;;;;;5135140;27;20445;-77
2022/01/08 02:24:26;;;;;;;5.33;2.47;;;;;;;;;;5136284;27;20454;-78
2022/01/08 02:26:55;;;;;;;6.93;2.70;;;;;;;;;;5135716;27;20473;-78
2022/01/08 02:29:23;;;;;;;5.07;2.87;;;;;;;;;;5137542;27;20454;-78
2022/01/08 02:31:55;;;;;;;5.57;2.23;;;;;;;;;;5135487;27;20454;-78
2022/01/08 02:34:24;;;;;;;5.47;2.20;;;;;;;;;;5133362;28;20457;-78
2022/01/08 02:36:52;;;;;;;3.63;2.43;;;;;;;;;;5131347;28;20475;-78
2022/01/08 02:39:22;;;;;;;3.07;1.87;;;;;;;;;;5135575;28;20518;-78
2022/01/08 02:41:54;;;;;;;4.67;2.87;;;;;;;;;;5134346;28;20450;-78
2022/01/08 02:44:23;;;;;;;5.57;2.17;;;;;;;;;;5134431;28;20807;-78
2022/01/08 02:46:51;;;;;;;2.73;2.30;;;;;;;;;;5129180;27;20470;-78
2022/01/08 02:49:21;;;;;;;5.03;2.80;;;;;;;;;;5134567;27;20834;-78
2022/01/08 02:51:49;;;;;;;4.53;3.07;;;;;;;;;;5139985;27;20478;-78
2022/01/08 02:54:17;;;;;;;4.33;2.33;;;;;;;;;;5140275;27;20461;-78
2022/01/08 02:56:48;;;;;;;4.17;3.17;;;;;;;;;;5139271;27;20471;-79
2022/01/08 02:59:16;;;;;;;3.13;2.00;;;;;;;;;;5140564;27;21032;-78
2022/01/08 03:01:45;;;;;;;3.07;2.77;;;;;;;;;;5137446;27;20484;-79
2022/01/08 03:04:13;;;;;;;5.37;2.47;;;;;;;;;;5136205;27;20462;-79
2022/01/08 03:06:41;;;;;;;4.27;2.50;;;;;;;;;;5130243;27;20557;-78
2022/01/08 03:09:09;;;;;;;5.00;2.50;;;;;;;;;;5133123;27;20453;-78
2022/01/08 03:11:38;;;;;;;6.37;2.50;;;;;;;;;;5139871;27;20460;-78
2022/01/08 03:14:08;;;;;;;5.27;2.87;;;;;;;;;;5140563;27;20476;-79
2022/01/08 03:16:36;;;;;;;4.67;2.63;;;;;;;;;;5140319;27;20480;-78
2022/01/08 03:19:10;;;;;;;4.13;2.70;;;;;;;;;;5137248;27;20480;-79
2022/01/08 03:21:41;;;;;;;4.20;2.80;;;;;;;;;;5140767;27;20524;-79
2022/01/08 03:24:10;;;;;;;4.83;2.97;;;;;;;;;;5131876;27;20811;-79
2022/01/08 03:26:38;;;;;;;9.53;2.77;;;;;;;;;;5133042;27;20470;-78
2022/01/08 03:29:06;;;;;;;5.03;3.10;;;;;;;;;;5139326;27;20445;-79
2022/01/08 03:31:36;;;;;;;5.07;2.60;;;;;;;;;;5139952;27;20818;-79
2022/01/08 03:34:05;;;;;;;5.47;3.07;;;;;;;;;;5139475;27;20453;-79
2022/01/08 03:36:33;;;;;;;4.13;2.60;;;;;;;;;;5135396;27;20470;-79
2022/01/08 03:39:01;;;;;;;6.40;3.27;;;;;;;;;;5136472;27;20600;-79
2022/01/08 03:41:29;;;;;;;4.37;3.27;;;;;;;;;;5133821;27;20797;-79
2022/01/08 03:43:57;;;;;;;4.90;3.57;;;;;;;;;;5139129;27;20462;-79
2022/01/08 03:46:28;;;;;;;5.33;2.90;;;;;;;;;;5127441;27;20470;-79
2022/01/08 03:49:22;;;;;;;3.67;2.87;;;;;;;;;;5127019;28;20495;-79
2022/01/08 03:51:50;;;;;;;3.23;2.53;;;;;;;;;;5134356;28;20458;-80
2022/01/08 03:54:19;;;;;;;3.10;2.30;;;;;;;;;;5125345;28;20450;-79
2022/01/08 03:56:47;;;;;;;4.97;2.90;;;;;;;;;;5138520;28;20473;-79
2022/01/08 03:59:15;;;;;;;4.47;2.77;;;;;;;;;;5138098;28;20489;-79
2022/01/08 04:01:43;;;;;;;3.90;2.50;;;;;;;;;;5138025;27;20453;-79
2022/01/08 04:04:12;;;;;;;4.40;3.10;;;;;;;;;;5137603;28;20458;-79
2022/01/08 04:06:40;;;;;;;5.83;2.90;;;;;;;;;;5135516;28;20470;-79
2022/01/08 04:09:08;;;;;;;4.30;3.10;;;;;;;;;;5137688;28;20956;-78
2022/01/08 04:11:36;;;;;;;5.97;3.10;;;;;;;;;;5138477;28;20940;-79
2022/01/08 04:14:04;;;;;;;7.13;3.90;;;;;;;;;;5131961;28;20945;-78
2022/01/08 04:16:34;;;;;;;4.40;3.07;;;;;;;;;;5138623;28;20479;-79
2022/01/08 04:19:02;;;;;;;9.03;4.27;;;;;;;;;;5126645;27;20481;-78
2022/01/08 04:24:17;;;;;;;6.97;4.17;;;;;;;;;;5135659;28;20449;-78
2022/01/08 04:26:45;;;;;;;6.90;3.60;;;;;;;;;;5131154;27;20470;-78
2022/01/08 04:29:13;;;;;;;5.03;3.97;;;;;;;;;;5137414;28;20449;-78
2022/01/08 04:31:41;;;;;;;6.07;4.20;;;;;;;;;;5137735;28;20462;-77
2022/01/08 04:34:09;;;;;;;6.90;4.23;;;;;;;;;;5137113;28;20458;-76
2022/01/08 04:36:38;;;;;;;5.40;4.10;;;;;;;;;;5133487;28;20480;-77
2022/01/08 04:39:06;;;;;;;5.50;4.30;;;;;;;;;;5123149;28;20474;-78
2022/01/08 04:41:34;;;;;;;3.43;2.93;;;;;;;;;;5134686;28;20453;-77
2022/01/08 04:44:02;;;;;;;4.47;3.80;;;;;;;;;;5133393;28;20696;-77
2022/01/08 04:46:30;;;;;;;5.40;3.27;;;;;;;;;;5137328;28;20556;-76
2022/01/08 04:48:58;;;;;;;6.30;3.17;;;;;;;;;;5092597;27;1295306;-77
2022/01/08 04:51:26;;;;;;;4.27;3.87;;;;;;;;;;5128539;27;20203;-79
2022/01/08 04:53:55;;;;;;;4.73;2.87;;;;;;;;;;5127531;27;20461;-78
2022/01/08 04:56:23;;;;;;;5.13;3.37;;;;;;;;;;5137359;27;20544;-78
2022/01/08 04:58:51;;;;;;;6.07;3.03;;;;;;;;;;5133811;27;20496;-79
2022/01/08 05:01:19;;;;;;;3.33;2.73;;;;;;;;;;5129680;27;20457;-79
2022/01/08 05:03:47;;;;;;;7.87;3.27;;;;;;;;;;5138754;27;20453;-78
2022/01/08 05:06:16;;;;;;;4.83;3.10;;;;;;;;;;5133497;27;20502;-78
2022/01/08 05:08:44;;;;;;;9.70;4.53;;;;;;;;;;5133434;27;20454;-78
2022/01/08 05:11:13;;;;;;;6.47;3.17;;;;;;;;;;5128987;27;20453;-78
2022/01/08 05:13:43;;;;;;;5.27;3.50;;;;;;;;;;5128903;27;20461;-78
2022/01/08 05:16:11;;;;;;;14.40;7.80;;;;;;;;;;5133617;27;20480;-78
2022/01/08 05:18:39;;;;;;;5.13;4.03;;;;;;;;;;5132694;27;20483;-77
2022/01/08 05:21:17;;;;;;;3.03;2.40;;;;;;;;;;5141515;27;20790;-77
2022/01/08 05:23:45;;;;;;;4.67;3.17;;;;;;;;;;5128708;27;20460;-77
2022/01/08 05:26:15;;;;;;;3.90;2.47;;;;;;;;;;5137596;27;20473;-78
2022/01/08 05:28:44;;;;;;;3.60;2.67;;;;;;;;;;5136611;27;20450;-78
2022/01/08 05:31:12;;;;;;;5.20;3.00;;;;;;;;;;5136964;27;20563;-78
2022/01/08 05:33:43;;;;;;;4.20;3.47;;;;;;;;;;5136428;27;20461;-77
2022/01/08 05:36:11;;;;;;;3.83;2.70;;;;;;;;;;5137353;27;20477;-78
2022/01/08 05:38:39;;;;;;;5.23;2.80;;;;;;;;;;5137780;27;20450;-78
2022/01/08 05:41:07;;;;;;;2.67;2.40;;;;;;;;;;5135875;27;20454;-77
2022/01/08 05:43:36;;;;;;;3.47;2.40;;;;;;;;;;5129643;27;20460;-77
2022/01/08 05:46:04;;;;;;;3.73;2.73;;;;;;;;;;5135940;27;20553;-78
2022/01/08 05:48:32;;;;;;;4.13;2.63;;;;;;;;;;5136739;27;20232;-78
2022/01/08 05:51:00;;;;;;;3.77;3.00;;;;;;;;;;5131934;27;20457;-78
2022/01/08 05:53:28;;;;;;;5.13;3.07;;;;;;;;;;5128560;27;20462;-78
2022/01/08 05:55:56;;;;;;;3.93;2.70;;;;;;;;;;5139496;27;20222;-77
2022/01/08 05:58:24;;;;;;;4.10;2.60;;;;;;;;;;5129535;27;20460;-78
2022/01/08 06:00:53;;;;;;;3.27;2.57;;;;;;;;;;5137220;27;20474;-78
2022/01/08 06:03:21;;;;;;;6.40;3.00;;;;;;;;;;5136710;27;20217;-78
2022/01/08 06:05:49;;;;;;;6.07;3.10;;;;;;;;;;5135227;27;20450;-78
2022/01/08 06:08:17;;;;;;;3.73;2.87;;;;;;;;;;5135495;27;20208;-77
2022/01/08 06:10:45;;;;;;;3.90;2.60;;;;;;;;;;5131614;27;20449;-79
2022/01/08 06:13:13;;;;;;;6.47;3.00;;;;;;;;;;5135226;27;20568;-78
2022/01/08 06:15:41;;;;;;;2.80;2.30;;;;;;;;;;5132986;27;20825;-78
2022/01/08 06:18:10;;;;;;;4.97;2.50;;;;;;;;;;5128759;27;20454;-78
2022/01/08 06:20:38;;;;;;;3.83;2.20;;;;;;;;;;5131405;27;20566;-78
2022/01/08 06:23:06;;;;;;;4.77;2.50;;;;;;;;;;5132594;27;20458;-78
2022/01/08 06:25:34;;;;;;;3.73;2.50;;;;;;;;;;5133901;27;20952;-78
2022/01/08 06:28:02;;;;;;;2.87;2.30;;;;;;;;;;5121277;27;20455;-78
2022/01/08 06:30:30;;;;;;;7.43;2.70;;;;;;;;;;5136481;27;20196;-78
2022/01/08 06:32:58;;;;;;;4.23;1.73;;;;;;;;;;5136874;27;20456;-77
2022/01/08 06:35:28;;;;;;;3.50;1.47;;;;;;;;;;5136988;28;20458;-78
2022/01/08 06:37:56;;;;;;;1.43;1.33;;;;;;;;;;5128568;28;21000;-78
2022/01/08 06:40:23;;;;;;;2.77;1.43;;;;;;;;;;5137307;28;20482;-78
2022/01/08 06:42:51;;;;;;;2.37;1.67;;;;;;;;;;5134292;28;20464;-78
2022/01/08 06:45:19;;;;;;;2.27;1.40;;;;;;;;;;5126558;28;20206;-78
2022/01/08 06:47:47;;;;;;;1.83;1.73;;;;;;;;;;5135728;28;20238;-78
2022/01/08 06:50:15;;;;;;;1.70;1.53;;;;;;;;;;5136712;28;20685;-77
2022/01/08 06:52:45;;;;;;;3.27;1.70;;;;;;;;;;5136747;28;20196;-78
2022/01/08 06:55:13;;;;;;;2.33;1.60;;;;;;;;;;5129019;28;20208;-77
2022/01/08 06:57:43;;;;;;;3.10;1.63;;;;;;;;;;5137168;28;20556;-78
2022/01/08 07:00:11;;;;;;;1.90;1.70;;;;;;;;;;5128049;28;20494;-78
2022/01/08 07:02:40;;;;;;;4.37;1.40;;;;;;;;;;5136607;28;20200;-78
2022/01/08 07:05:08;;;;;;;3.83;2.00;;;;;;;;;;5122693;28;20586;-78
2022/01/08 07:07:36;;;;;;;5.70;1.70;;;;;;;;;;5135432;28;20480;-78
2022/01/08 07:10:06;;;;;;;2.50;1.73;;;;;;;;;;5132148;28;20193;-77
2022/01/08 07:12:35;;;;;;;1.80;1.50;;;;;;;;;;5136635;28;20214;-78
2022/01/08 07:15:03;;;;;;;2.30;2.10;;;;;;;;;;5134485;28;20196;-78
2022/01/08 07:17:30;;;;;;;1.87;1.43;;;;;;;;;;5127971;28;20473;-77
2022/01/08 07:19:58;;;;;;;2.13;1.40;;;;;;;;;;5132295;27;20221;-77
2022/01/08 07:22:26;;;;;;;2.90;1.80;;;;;;;;;;5134587;28;20207;-77
2022/01/08 07:24:54;;;;;;;1.50;1.23;;;;;;;;;;5130769;28;20197;-77
2022/01/08 07:27:24;;;;;;;2.17;1.90;;;;;;;;;;5135463;28;20470;-77
2022/01/08 07:29:52;;;;;;;2.33;1.37;;;;;;;;;;5130448;28;20193;-77
2022/01/08 07:32:20;;;;;;;5.00;1.60;;;;;;;;;;5129514;28;20201;-77
2022/01/08 07:34:48;;;;;;;3.50;1.50;;;;;;;;;;5124834;27;20451;-78
2022/01/08 07:37:16;;;;;;;2.00;1.50;;;;;;;;;;5135219;27;20988;-77
2022/01/08 07:39:43;;;;;;;4.30;1.80;;;;;;;;;;5139277;27;20202;-78
2022/01/08 07:42:11;;;;;;;3.23;2.03;;;;;;;;;;5140305;27;20197;-77
2022/01/08 07:44:41;;;;;;;3.33;2.00;;;;;;;;;;5139215;27;20292;-78
2022/01/08 07:47:10;;;;;;;3.43;1.93;;;;;;;;;;5139836;27;20234;-78
2022/01/08 07:49:38;;;;;;;2.73;2.20;;;;;;;;;;5139758;27;20571;-77
2022/01/08 07:52:07;;;;;;;1.83;1.67;;;;;;;;;;5128893;27;20200;-78
2022/01/08 07:54:35;;;;;;;4.13;2.20;;;;;;;;;;5135425;27;20200;-77
2022/01/08 07:57:03;;;;;;;3.70;2.37;;;;;;;;;;5139256;27;20522;-77
2022/01/08 07:59:31;;;;;;;2.13;1.93;;;;;;;;;;5136781;27;20530;-77
2022/01/08 08:02:00;;;;;;;3.10;2.07;;;;;;;;;;5138768;27;20226;-77
2022/01/08 08:04:28;;;;;;;3.40;2.03;;;;;;;;;;5131775;27;20502;-77
2022/01/08 08:06:56;;;;;;;4.60;2.10;;;;;;;;;;5130280;27;20594;-77
2022/01/08 08:09:24;;;;;;;1.53;1.40;;;;;;;;;;5131566;27;20227;-77
2022/01/08 08:11:52;;;;;;;2.87;1.57;;;;;;;;;;5139661;27;20196;-77
2022/01/08 08:14:20;;;;;;;2.70;1.97;;;;;;;;;;5121917;27;20207;-77
2022/01/08 08:16:48;;;;;;;1.70;1.10;;;;;;;;;;5139397;27;20227;-77
2022/01/08 08:19:18;;;;;;;3.67;1.63;;;;;;;;;;5141101;27;20208;-77
2022/01/08 08:21:46;;;;;;;5.07;1.73;;;;;;;;;;5138878;27;20220;-77
2022/01/08 08:24:14;;;;;;;1.87;1.50;;;;;;;;;;5139290;27;20636;-77
2022/01/08 08:26:42;;;;;;;3.43;1.70;;;;;;;;;;5134343;27;20587;-77
2022/01/08 08:29:10;;;;;;;1.77;1.27;;;;;;;;;;5139304;27;20539;-77
2022/01/08 08:31:38;;;;;;;5.43;1.77;;;;;;;;;;5133480;27;20210;-77
2022/01/08 08:34:09;;;;;;;1.57;1.40;;;;;;;;;;5134068;27;20275;-77
2022/01/08 08:36:39;;;;;;;2.43;1.30;;;;;;;;;;5135714;27;20216;-78
2022/01/08 08:39:07;;;;;;;4.03;1.53;;;;;;;;;;5133290;27;20460;-77
2022/01/08 08:41:35;;;;;;;2.03;1.37;;;;;;;;;;5137333;27;20221;-77
2022/01/08 08:44:03;;;;;;;2.57;1.30;;;;;;;;;;5139233;27;20449;-77
2022/01/08 08:46:31;;;;;;;1.97;0.93;;;;;;;;;;5137498;27;20236;-77
2022/01/08 08:48:59;;;;;;;2.27;0.93;;;;;;;;;;5130450;27;20482;-77
2022/01/08 08:51:27;;;;;;;1.47;1.10;;;;;;;;;;5134426;27;20564;-77
2022/01/08 08:54:02;;;;;;;3.03;1.03;;;;;;;;;;5131011;27;20453;-77
2022/01/08 08:56:29;;;;;;;1.63;1.30;;;;;;;;;;5140766;27;20505;-77
2022/01/08 08:58:57;;;;;;;1.33;0.90;;;;;;;;;;5129853;27;20573;-78
2022/01/08 09:01:26;;;;;;;1.87;1.30;;;;;;;;;;5130497;27;20486;-77
2022/01/08 09:03:54;;;;;;;5.27;1.50;;;;;;;;;;5137783;27;20455;-77
2022/01/08 09:06:22;;;;;;;1.63;0.90;;;;;;;;;;5133059;27;21036;-78
2022/01/08 09:08:50;;;;;;;2.20;1.60;;;;;;;;;;5137970;27;20206;-78
2022/01/08 09:11:20;;;;;;;1.60;1.27;;;;;;;;;;5132192;27;20192;-77
2022/01/08 09:13:48;;;;;;;1.83;1.43;;;;;;;;;;5120701;27;20974;-77
2022/01/08 09:16:16;;;;;;;2.37;1.50;;;;;;;;;;5121264;27;20590;-77
2022/01/08 09:18:44;;;;;;;1.73;1.50;;;;;;;;;;5131261;27;20264;-78
2022/01/08 09:21:13;;;;;;;1.67;1.57;;;;;;;;;;5137946;27;20224;-78
2022/01/08 09:23:41;;;;;;;5.10;2.40;;;;;;;;;;5138276;27;20206;-77
2022/01/08 09:26:09;;;;;;;3.77;2.50;;;;;;;;;;5136446;27;20231;-77
2022/01/08 09:28:39;;;;;;;3.47;2.33;;;;;;;;;;5137924;27;20450;-78
2022/01/08 09:31:07;;;;;;;3.00;2.80;;;;;;;;;;5135004;27;20198;-77
2022/01/08 09:33:36;;;;;;;2.93;2.50;;;;;;;;;;5127338;27;20202;-77
2022/01/08 09:36:04;;;;;;;3.30;2.57;;;;;;;;;;5137463;27;20216;-77
2022/01/08 09:38:32;;;;;;;7.33;2.33;;;;;;;;;;5138235;27;20196;-77
2022/01/08 09:41:00;;;;;;;5.63;2.63;;;;;;;;;;5133542;27;20213;-77
2022/01/08 09:43:28;;;;;;;5.13;2.77;;;;;;;;;;5138147;27;20456;-78
2022/01/08 09:45:57;;;;;;;3.53;3.07;;;;;;;;;;5129725;27;20225;-77
2022/01/08 09:48:25;;;;;;;3.83;2.83;;;;;;;;;;5124335;27;20865;-78
2022/01/08 09:50:53;;;;;;;3.07;2.33;;;;;;;;;;5137989;27;20458;-78
2022/01/08 09:53:22;;;;;;;3.63;2.60;;;;;;;;;;5125951;27;20449;-77
2022/01/08 09:55:49;;;;;;;4.53;2.90;;;;;;;;;;5137158;27;20226;-78
2022/01/08 09:58:17;;;;;;;3.73;3.03;;;;;;;;;;5134983;27;20454;-78
2022/01/08 10:00:46;;;;;;;3.53;2.90;;;;;;;;;;5131288;27;20464;-78
2022/01/08 10:03:20;;;;;;;7.87;3.43;;;;;;;;;;5136214;27;20932;-78
2022/01/08 10:05:49;;;;;;;3.13;2.80;;;;;;;;;;5137416;27;20864;-79
2022/01/08 10:08:37;;;;;;;3.63;2.73;;;;;;;;;;5137388;27;20450;-79
2022/01/08 10:11:07;;;;;;;4.97;3.20;;;;;;;;;;5137316;27;20197;-78
2022/01/08 10:13:37;;;;;;;4.60;3.80;;;;;;;;;;5135965;27;20455;-79
2022/01/08 10:18:52;;;;;;;6.60;3.40;;;;;;;;;;5122500;27;20453;-79
2022/01/08 10:21:21;;;;;;;6.47;3.60;;;;;;;;;;5134947;27;20845;-78
2022/01/08 10:23:49;;;;;;;7.40;3.00;;;;;;;;;;5130235;27;20456;-78
2022/01/08 10:26:18;;;;;;;3.27;2.97;;;;;;;;;;5131103;27;20489;-78
2022/01/08 10:28:48;;;;;;;3.57;2.73;;;;;;;;;;5129537;27;20454;-79
2022/01/08 10:31:18;;;;;;;5.93;2.83;;;;;;;;;;5136854;27;20956;-78
2022/01/08 10:33:48;;;;;;;6.60;2.90;;;;;;;;;;5125308;27;20453;-78
2022/01/08 10:36:20;;;;;;;5.90;3.40;;;;;;;;;;5130610;27;20430;-78
2022/01/08 10:38:50;;;;;;;5.07;2.37;;;;;;;;;;5125761;28;20469;-78
2022/01/08 10:41:19;;;;;;;2.77;2.20;;;;;;;;;;5132343;28;20453;-78
2022/01/08 10:43:47;;;;;;;3.23;2.70;;;;;;;;;;5135802;28;20944;-78
2022/01/08 10:46:16;;;;;;;4.20;3.00;;;;;;;;;;5136641;28;20505;-78
2022/01/08 10:48:46;;;;;;;5.27;2.93;;;;;;;;;;5127534;28;20478;-78
2022/01/08 10:51:23;;;;;;;5.57;2.00;;;;;;;;;;5137182;28;20460;-78
2022/01/08 10:54:02;;;;;;;2.57;2.10;;;;;;;;;;5134225;28;20457;-79
2022/01/08 10:56:31;;;;;;;1.60;1.50;;;;;;;;;;5133228;27;20479;-78
2022/01/08 10:59:04;;;;;;;2.60;1.80;;;;;;;;;;5136481;28;20450;-78
2022/01/08 11:01:40;;;;;;;3.00;1.60;;;;;;;;;;5136588;28;20200;-78
2022/01/08 11:04:08;;;;;;;2.00;1.60;;;;;;;;;;5125374;28;20458;-78
2022/01/08 11:06:49;;;;;;;2.73;1.60;;;;;;;;;;5131003;28;20499;-78
2022/01/08 11:09:16;;;;;;;3.47;1.17;;;;;;;;;;5137035;27;20461;-78
2022/01/08 11:11:50;;;;;;;5.80;1.80;;;;;;;;;;5130865;27;20956;-78
2022/01/08 11:14:44;;;;;;;1.50;1.40;;;;;;;;;;5140604;27;20532;-77
2022/01/08 11:17:12;;;;;;;2.47;1.00;;;;;;;;;;5127562;27;20469;-78
2022/01/08 11:19:43;;;;;;;1.67;1.30;;;;;;;;;;5138120;27;20203;-78
2022/01/08 11:22:13;;;;;;;1.37;1.33;;;;;;;;;;5127035;27;21007;-78
2022/01/08 11:24:44;;;;;;;1.37;1.27;;;;;;;;;;5140591;27;20963;-78
2022/01/08 11:27:13;;;;;;;3.23;1.53;;;;;;;;;;5139779;27;20491;-78
2022/01/08 11:29:41;;;;;;;4.50;1.83;;;;;;;;;;5140201;27;20211;-78
2022/01/08 11:32:10;;;;;;;2.73;1.70;;;;;;;;;;5135720;27;20458;-78
2022/01/08 11:34:41;;;;;;;3.03;1.87;;;;;;;;;;5135851;27;20446;-78
2022/01/08 11:37:09;;;;;;;2.70;2.17;;;;;;;;;;5139348;27;20474;-78
2022/01/08 11:39:39;;;;;;;3.30;2.00;;;;;;;;;;5139584;27;20449;-78
2022/01/08 11:42:07;;;;;;;4.10;2.07;;;;;;;;;;5139101;27;21017;-79
2022/01/08 11:44:36;;;;;;;3.07;1.57;;;;;;;;;;5139948;27;20235;-78
2022/01/08 11:47:05;;;;;;;3.27;1.63;;;;;;;;;;5139097;27;20224;-78
2022/01/08 11:49:33;;;;;;;3.40;1.70;;;;;;;;;;5139972;27;20232;-78
2022/01/08 11:52:17;;;;;;;4.63;1.73;;;;;;;;;;5139629;27;20456;-78
2022/01/08 11:54:47;;;;;;;1.90;1.80;;;;;;;;;;5137991;27;20196;-78
2022/01/08 11:57:16;;;;;;;4.23;2.47;;;;;;;;;;5137956;27;20220;-78
2022/01/08 11:59:45;;;;;;;3.87;2.10;;;;;;;;;;5139918;27;20446;-78
2022/01/08 12:02:19;;;;;;;7.70;2.53;;;;;;;;;;5125639;27;20228;-78
2022/01/08 12:04:52;;;;;;;3.30;2.13;;;;;;;;;;5139921;27;20196;-79
2022/01/08 12:07:33;;;;;;;3.07;2.40;;;;;;;;;;5138919;27;20220;-78
2022/01/08 12:10:13;;;;;;;3.13;2.27;;;;;;;;;;5135321;27;20196;-78
2022/01/08 12:12:45;;;;;;;6.07;2.00;;;;;;;;;;5135224;27;20199;-79
2022/01/08 12:15:13;;;;;;;3.43;2.20;;;;;;;;;;5138262;27;20462;-78
2022/01/08 12:17:54;;;;;;;2.50;1.87;;;;;;;;;;5134827;27;20217;-78
2022/01/08 12:20:38;;;;;;;3.77;2.80;;;;;;;;;;5131787;27;20461;-78
2022/01/08 12:23:25;;;;;;;6.27;2.03;;;;;;;;;;5138978;27;20234;-78
2022/01/08 12:25:55;;;;;;;4.20;1.80;;;;;;;;;;5133810;27;20216;-78
2022/01/08 12:28:41;;;;;;;3.00;2.07;;;;;;;;;;5138646;27;20659;-78
2022/01/08 12:31:22;;;;;;;2.00;1.80;;;;;;;;;;5126781;27;20280;-78
2022/01/08 12:34:05;;;;;;;3.73;2.30;;;;;;;;;;5127956;27;20674;-79
2022/01/08 12:36:33;;;;;;;2.50;2.10;;;;;;;;;;5128995;27;20470;-78
2022/01/08 12:39:03;;;;;;;5.67;2.70;;;;;;;;;;5130396;27;20587;-78
2022/01/08 12:41:32;;;;;;;3.00;2.80;;;;;;;;;;5136355;27;20687;-78
2022/01/08 12:44:15;;;;;;;4.43;2.77;;;;;;;;;;5131766;27;20217;-78
2022/01/08 12:46:43;;;;;;;3.17;2.37;;;;;;;;;;5136615;27;20220;-78
2022/01/08 12:49:13;;;;;;;4.13;2.30;;;;;;;;;;5136790;27;20232;-78
2022/01/08 12:51:42;;;;;;;4.73;2.67;;;;;;;;;;5136390;27;20962;-78
2022/01/08 12:54:10;;;;;;;3.17;2.23;;;;;;;;;;5137681;27;20207;-78
2022/01/08 12:56:48;;;;;;;4.50;2.50;;;;;;;;;;5141215;27;20224;-79
2022/01/08 12:59:16;;;;;;;4.47;2.63;;;;;;;;;;5129245;27;20554;-78
2022/01/08 13:01:45;;;;;;;4.47;2.30;;;;;;;;;;5137781;27;20464;-78
2022/01/08 13:04:16;;;;;;;2.93;2.30;;;;;;;;;;5130324;27;20226;-79
2022/01/08 13:06:45;;;;;;;2.60;2.10;;;;;;;;;;5137550;27;20302;-79
2022/01/08 13:09:15;;;;;;;3.53;2.10;;;;;;;;;;5136297;27;20200;-78
2022/01/08 13:11:43;;;;;;;3.40;2.10;;;;;;;;;;5129669;27;20628;-79
2022/01/08 13:14:15;;;;;;;4.40;2.17;;;;;;;;;;5132233;27;20188;-78
2022/01/08 13:16:44;;;;;;;2.27;2.07;;;;;;;;;;5124738;27;20224;-79
2022/01/08 13:19:13;;;;;;;2.67;1.80;;;;;;;;;;5134581;27;20210;-78
2022/01/08 13:21:42;;;;;;;2.17;2.00;;;;;;;;;;5136883;27;20263;-79
2022/01/08 13:24:14;;;;;;;2.33;1.60;;;;;;;;;;5138366;27;20212;-78
2022/01/08 13:26:43;;;;;;;4.23;2.00;;;;;;;;;;5129168;27;20691;-78
2022/01/08 13:29:20;;;;;;;3.37;2.00;;;;;;;;;;5133605;27;20207;-78
2022/01/08 13:31:49;;;;;;;2.00;1.90;;;;;;;;;;5135743;27;20199;-78
2022/01/08 13:34:17;;;;;;;1.60;1.50;;;;;;;;;;5137437;27;20275;-79
2022/01/08 13:37:09;;;;;;;2.40;2.00;;;;;;;;;;5136637;27;20230;-78
2022/01/08 13:39:41;;;;;;;4.27;1.60;;;;;;;;;;5131865;27;20197;-79
2022/01/08 13:42:14;;;;;;;4.50;2.00;;;;;;;;;;5136996;27;20206;-78
2022/01/08 13:44:44;;;;;;;2.07;1.77;;;;;;;;;;5123888;27;20230;-78
2022/01/08 13:47:23;;;;;;;3.80;2.00;;;;;;;;;;5120970;27;20304;-78
2022/01/08 13:49:53;;;;;;;2.20;1.93;;;;;;;;;;5134579;27;20288;-78
2022/01/08 13:52:27;;;;;;;5.93;1.87;;;;;;;;;;5137682;27;20670;-78
2022/01/08 13:55:09;;;;;;;1.93;1.80;;;;;;;;;;5136933;27;20205;-79
2022/01/08 13:57:37;;;;;;;3.60;1.67;;;;;;;;;;5137560;27;20220;-79
2022/01/08 14:00:14;;;;;;;3.27;1.73;;;;;;;;;;5136274;27;22420;-78
2022/01/08 14:02:42;;;;;;;6.37;2.73;;;;;;;;;;5137288;27;20210;-79
2022/01/08 14:05:10;;;;;;;77.83;19.00;;;;;;;;;;5136864;27;20220;-78
2022/01/08 14:07:39;;;;;;;177.80;45.00;;;;;;;;;;5137057;27;20224;-78
2022/01/08 14:10:08;;;;;;;89.73;27.70;;;;;;;;;;5133299;27;20204;-78
2022/01/08 14:12:36;;;;;;;44.27;15.03;;;;;;;;;;5126282;27;20214;-79
2022/01/08 14:15:05;;;;;;;25.97;13.93;;;;;;;;;;5138379;27;20567;-78
2022/01/08 14:17:35;;;;;;;12.80;6.70;;;;;;;;;;5138833;27;20220;-78
2022/01/08 14:20:05;;;;;;;12.23;5.70;;;;;;;;;;5152149;27;20210;-78
2022/01/08 14:22:33;;;;;;;21.67;7.33;;;;;;;;;;5153608;27;20201;-78
2022/01/08 14:25:01;;;;;;;12.60;5.23;;;;;;;;;;5136138;27;20578;-77
2022/01/08 14:27:38;;;;;;;6.30;3.60;;;;;;;;;;5137302;27;20222;-77
2022/01/08 14:30:09;;;;;;;4.90;4.40;;;;;;;;;;5135857;27;20196;-77
2022/01/08 14:32:39;;;;;;;2.27;1.97;;;;;;;;;;5137103;27;20211;-77
2022/01/08 14:35:08;;;;;;;2.57;1.93;;;;;;;;;;5136452;27;20203;-77
2022/01/08 14:37:38;;;;;;;1.87;1.43;;;;;;;;;;5128100;27;20710;-78
2022/01/08 14:40:16;;;;;;;1.57;1.43;;;;;;;;;;5131862;28;20207;-77
2022/01/08 14:42:44;;;;;;;3.73;2.10;;;;;;;;;;5131874;28;20203;-78
2022/01/08 14:45:17;;;;;;;2.07;1.83;;;;;;;;;;5136035;27;20215;-77
2022/01/08 14:47:47;;;;;;;2.20;2.00;;;;;;;;;;5140746;27;20235;-77
2022/01/08 14:50:16;;;;;;;3.40;1.67;;;;;;;;;;5133962;27;20732;-77
2022/01/08 14:52:45;;;;;;;2.13;1.60;;;;;;;;;;5126582;27;20203;-78
2022/01/08 14:55:14;;;;;;;8.20;2.00;;;;;;;;;;5139433;27;20573;-78
2022/01/08 14:57:41;;;;;;;4.00;1.57;;;;;;;;;;5140984;27;20612;-78
2022/01/08 15:00:11;;;;;;;3.67;1.60;;;;;;;;;;5140089;27;20288;-77
2022/01/08 15:02:40;;;;;;;4.10;1.40;;;;;;;;;;5136315;27;20196;-78
2022/01/08 15:05:10;;;;;;;1.50;1.40;;;;;;;;;;5140971;27;20224;-77
2022/01/08 15:07:38;;;;;;;3.57;1.40;;;;;;;;;;5129541;27;20624;-78
2022/01/08 15:10:07;;;;;;;2.63;1.50;;;;;;;;;;5128947;27;20211;-77
2022/01/08 15:12:36;;;;;;;1.50;1.40;;;;;;;;;;5134432;27;20197;-78
2022/01/08 15:15:05;;;;;;;2.27;1.80;;;;;;;;;;5132061;27;20271;-78
2022/01/08 15:17:33;;;;;;;3.80;1.80;;;;;;;;;;5137587;27;20224;-77